Time,TemperatureF,DewpointF,PressureIn,WindDirection,WindDirectionDegrees,WindSpeedMPH,WindSpeedGustMPH,Humidity,HourlyPrecipIn,Conditions,Clouds,dailyrainin,SoftwareType,DateUTC
2013-05-10 00:00:00,52.7,48.0,30.16,WSW,237,0.0,0.0,84,0.00,,,0.00,WeatherTracker,2013-05-10 07:00:00,
2013-05-10 00:10:00,52.6,47.9,30.16,WSW,238,0.0,0.0,84,0.00,,,0.00,WeatherTracker,2013-05-10 07:10:00,
2013-05-10 00:20:00,52.6,47.9,30.16,WSW,238,0.0,0.0,84,0.00,,,0.00,WeatherTracker,2013-05-10 07:20:00,
2013-05-10 00:30:00,52.6,48.2,30.16,WSW,238,0.0,0.0,85,0.00,,,0.00,WeatherTracker,2013-05-10 07:30:00,
2013-05-10 00:40:00,52.6,48.2,30.16,WSW,238,0.0,0.0,85,0.00,,,0.00,WeatherTracker,2013-05-10 07:40:00,
2013-05-10 00:50:00,52.7,48.3,30.16,WSW,238,0.0,0.0,85,0.00,,,0.00,WeatherTracker,2013-05-10 07:50:00,
2013-05-10 01:00:00,52.8,48.4,30.17,WSW,238,0.0,0.0,85,0.00,,,0.00,WeatherTracker,2013-05-10 08:00:00,
2013-05-10 01:10:00,52.9,48.2,30.17,WSW,238,0.0,0.0,84,0.00,,,0.00,WeatherTracker,2013-05-10 08:10:00,
2013-05-10 01:20:00,53.1,48.4,30.17,WSW,238,0.0,0.0,84,0.00,,,0.00,WeatherTracker,2013-05-10 08:20:00,
2013-05-10 01:30:00,53.2,48.5,30.16,WSW,237,0.0,0.0,84,0.00,,,0.00,WeatherTracker,2013-05-10 08:30:00,
2013-05-10 01:40:00,53.4,48.7,30.16,WSW,238,0.0,0.0,84,0.00,,,0.00,WeatherTracker,2013-05-10 08:40:00,
2013-05-10 01:50:00,53.5,48.5,30.16,WSW,237,0.0,1.0,83,0.00,,,0.00,WeatherTracker,2013-05-10 08:50:00,
2013-05-10 02:00:00,53.6,48.6,30.15,WSW,238,0.0,1.0,83,0.00,,,0.00,WeatherTracker,2013-05-10 09:00:00,
2013-05-10 02:10:00,53.6,48.6,30.15,WSW,237,0.0,0.0,83,0.00,,,0.00,WeatherTracker,2013-05-10 09:10:00,
2013-05-10 02:20:00,53.7,48.7,30.15,WSW,238,0.0,1.0,83,0.00,,,0.00,WeatherTracker,2013-05-10 09:20:00,
2013-05-10 02:30:00,53.8,48.8,30.15,WSW,238,0.0,0.0,83,0.00,,,0.00,WeatherTracker,2013-05-10 09:30:00,
2013-05-10 02:40:00,53.8,48.4,30.14,WSW,238,0.0,1.0,82,0.00,,,0.00,WeatherTracker,2013-05-10 09:40:00,
2013-05-10 02:50:00,53.9,48.9,30.14,WSW,238,0.0,0.0,83,0.00,,,0.00,WeatherTracker,2013-05-10 09:50:00,
2013-05-10 03:00:00,53.9,48.5,30.14,WSW,238,0.0,0.0,82,0.00,,,0.00,WeatherTracker,2013-05-10 10:00:00,
2013-05-10 03:10:00,54.0,48.6,30.14,WSW,237,0.0,0.0,82,0.00,,,0.00,WeatherTracker,2013-05-10 10:10:00,
2013-05-10 03:20:00,54.0,49.0,30.14,WSW,238,0.0,0.0,83,0.00,,,0.00,WeatherTracker,2013-05-10 10:20:00,
2013-05-10 03:30:00,54.1,48.7,30.13,WSW,238,0.0,1.0,82,0.00,,,0.00,WeatherTracker,2013-05-10 10:30:00,
2013-05-10 03:40:00,54.1,49.1,30.13,WSW,238,0.0,0.0,83,0.00,,,0.00,WeatherTracker,2013-05-10 10:40:00,
2013-05-10 03:50:00,54.2,49.1,30.13,WSW,238,0.0,0.0,83,0.00,,,0.00,WeatherTracker,2013-05-10 10:50:00,
2013-05-10 04:00:00,54.3,48.9,30.13,WSW,238,0.0,0.0,82,0.00,,,0.00,WeatherTracker,2013-05-10 11:00:00,
2013-05-10 04:10:00,54.4,49.0,30.13,WSW,238,0.0,0.0,82,0.00,,,0.00,WeatherTracker,2013-05-10 11:10:00,
2013-05-10 04:20:00,54.4,49.0,30.12,WSW,237,0.0,0.0,82,0.00,,,0.00,WeatherTracker,2013-05-10 11:20:00,
2013-05-10 04:30:00,54.4,49.0,30.11,WSW,238,0.0,0.0,82,0.00,,,0.00,WeatherTracker,2013-05-10 11:30:00,
2013-05-10 04:40:00,54.5,49.1,30.11,WSW,238,0.0,0.0,82,0.00,,,0.00,WeatherTracker,2013-05-10 11:40:00,
2013-05-10 04:50:00,54.4,49.0,30.11,WSW,238,0.0,0.0,82,0.00,,,0.00,WeatherTracker,2013-05-10 11:50:00,
2013-05-10 05:00:00,54.5,49.1,30.11,WSW,237,0.0,0.0,82,0.00,,,0.00,WeatherTracker,2013-05-10 12:00:00,
2013-05-10 05:10:00,54.5,49.1,30.11,WSW,238,0.0,0.0,82,0.00,,,0.00,WeatherTracker,2013-05-10 12:10:00,
2013-05-10 05:20:00,54.5,48.8,30.11,WSW,237,0.0,0.0,81,0.00,,,0.00,WeatherTracker,2013-05-10 12:20:00,
2013-05-10 05:30:00,54.6,49.5,30.11,WSW,238,0.0,0.0,83,0.00,,,0.00,WeatherTracker,2013-05-10 12:30:00,
2013-05-10 05:40:00,54.5,49.1,30.12,WSW,238,0.0,0.0,82,0.00,,,0.00,WeatherTracker,2013-05-10 12:40:00,
2013-05-10 05:50:00,54.4,49.0,30.11,WSW,238,0.0,1.0,82,0.00,,,0.00,WeatherTracker,2013-05-10 12:50:00,
2013-05-10 06:00:00,54.2,48.8,30.12,WSW,238,0.0,0.0,82,0.00,,,0.00,WeatherTracker,2013-05-10 13:00:00,
2013-05-10 06:10:00,54.1,48.7,30.12,WSW,238,0.0,0.0,82,0.00,,,0.00,WeatherTracker,2013-05-10 13:10:00,
2013-05-10 06:20:00,54.1,48.7,30.13,WSW,238,0.0,0.0,82,0.00,,,0.00,WeatherTracker,2013-05-10 13:20:00,
2013-05-10 06:30:00,54.1,49.1,30.13,WSW,237,0.0,0.0,83,0.00,,,0.00,WeatherTracker,2013-05-10 13:30:00,
2013-05-10 06:40:00,54.1,49.1,30.13,WSW,238,0.0,0.0,83,0.00,,,0.00,WeatherTracker,2013-05-10 13:40:00,
2013-05-10 06:50:00,54.2,49.1,30.14,WSW,238,0.0,0.0,83,0.00,,,0.00,WeatherTracker,2013-05-10 13:50:00,
2013-05-10 07:00:00,54.3,49.2,30.14,WSW,237,0.0,0.0,83,0.00,,,0.00,WeatherTracker,2013-05-10 14:00:00,
2013-05-10 07:10:00,54.4,49.3,30.14,WSW,237,0.0,0.0,83,0.00,,,0.00,WeatherTracker,2013-05-10 14:10:00,
2013-05-10 07:20:00,54.6,49.5,30.14,WSW,238,0.0,0.0,83,0.00,,,0.00,WeatherTracker,2013-05-10 14:20:00,
2013-05-10 07:30:00,54.7,49.3,30.15,WSW,237,0.0,0.0,82,0.00,,,0.00,WeatherTracker,2013-05-10 14:30:00,
2013-05-10 07:40:00,54.9,49.8,30.15,WSW,237,0.0,0.0,83,0.00,,,0.00,WeatherTracker,2013-05-10 14:40:00,
2013-05-10 07:50:00,55.1,50.0,30.15,WSW,238,0.0,0.0,83,0.00,,,0.00,WeatherTracker,2013-05-10 14:50:00,
2013-05-10 08:00:00,55.2,49.5,30.16,WSW,238,0.0,0.0,81,0.00,,,0.00,WeatherTracker,2013-05-10 15:00:00,
2013-05-10 08:10:00,55.4,49.7,30.15,WSW,238,0.0,0.0,81,0.00,,,0.00,WeatherTracker,2013-05-10 15:10:00,
2013-05-10 08:20:00,55.6,49.9,30.15,WSW,238,0.0,0.0,81,0.00,,,0.00,WeatherTracker,2013-05-10 15:20:00,
2013-05-10 08:30:00,55.9,50.2,30.15,WSW,238,0.0,0.0,81,0.00,,,0.00,WeatherTracker,2013-05-10 15:30:00,
2013-05-10 08:40:00,56.0,50.3,30.15,WSW,238,0.0,1.0,81,0.00,,,0.00,WeatherTracker,2013-05-10 15:40:00,
2013-05-10 08:50:00,56.2,50.8,30.15,WSW,238,0.0,0.0,82,0.00,,,0.00,WeatherTracker,2013-05-10 15:50:00,
2013-05-10 09:00:00,56.6,50.5,30.15,WSW,238,0.0,0.0,80,0.00,,,0.00,WeatherTracker,2013-05-10 16:00:00,
2013-05-10 09:10:00,57.1,51.0,30.15,WSW,237,0.0,1.0,80,0.00,,,0.00,WeatherTracker,2013-05-10 16:10:00,
2013-05-10 09:20:00,57.6,51.1,30.15,WSW,238,0.0,0.0,79,0.00,,,0.00,WeatherTracker,2013-05-10 16:20:00,
2013-05-10 09:30:00,58.4,51.6,30.14,WSW,238,0.0,1.0,78,0.00,,,0.00,WeatherTracker,2013-05-10 16:30:00,
2013-05-10 09:40:00,59.0,51.8,30.14,WSW,238,0.0,0.0,77,0.00,,,0.00,WeatherTracker,2013-05-10 16:40:00,
2013-05-10 09:50:00,60.0,51.7,30.14,WSW,238,0.0,1.0,74,0.00,,,0.00,WeatherTracker,2013-05-10 16:50:00,
2013-05-10 10:00:00,61.1,53.1,30.14,WSW,238,0.0,1.0,75,0.00,,,0.00,WeatherTracker,2013-05-10 17:00:00,
2013-05-10 10:10:00,62.3,52.8,30.14,WSW,238,0.0,0.0,71,0.00,,,0.00,WeatherTracker,2013-05-10 17:10:00,
2013-05-10 10:20:00,63.2,53.2,30.14,WSW,237,0.0,1.0,70,0.00,,,0.00,WeatherTracker,2013-05-10 17:20:00,
2013-05-10 10:30:00,64.6,54.2,30.15,SE,128,0.0,1.0,69,0.00,,,0.00,WeatherTracker,2013-05-10 17:30:00,
2013-05-10 10:40:00,65.9,54.6,30.15,SE,128,0.0,0.0,67,0.00,,,0.00,WeatherTracker,2013-05-10 17:40:00,
2013-05-10 10:50:00,66.3,54.2,30.15,ENE,64,0.0,1.0,65,0.00,,,0.00,WeatherTracker,2013-05-10 17:50:00,
2013-05-10 11:00:00,66.1,54.4,30.15,ENE,64,0.0,1.0,66,0.00,,,0.00,WeatherTracker,2013-05-10 18:00:00,
2013-05-10 11:10:00,65.5,54.2,30.15,ENE,64,0.0,2.0,67,0.00,,,0.00,WeatherTracker,2013-05-10 18:10:00,
2013-05-10 11:20:00,65.4,54.1,30.15,ENE,64,0.0,1.0,67,0.00,,,0.00,WeatherTracker,2013-05-10 18:20:00,
2013-05-10 11:30:00,65.0,53.8,30.15,ENE,64,0.0,2.0,67,0.00,,,0.00,WeatherTracker,2013-05-10 18:30:00,
2013-05-10 11:40:00,64.8,54.0,30.15,NE,38,1.0,2.0,68,0.00,,,0.00,WeatherTracker,2013-05-10 18:40:00,
2013-05-10 11:50:00,64.7,54.3,30.15,NE,38,0.0,2.0,69,0.00,,,0.00,WeatherTracker,2013-05-10 18:50:00,
2013-05-10 12:00:00,64.9,54.9,30.15,NE,38,0.0,2.0,70,0.00,,,0.00,WeatherTracker,2013-05-10 19:00:00,
2013-05-10 12:10:00,64.6,55.0,30.14,NE,45,0.0,2.0,71,0.00,,,0.00,WeatherTracker,2013-05-10 19:10:00,
2013-05-10 12:20:00,64.8,54.8,30.14,ENE,58,1.0,3.0,70,0.00,,,0.00,WeatherTracker,2013-05-10 19:20:00,
2013-05-10 12:30:00,64.7,55.5,30.14,ENE,57,1.0,3.0,72,0.00,,,0.00,WeatherTracker,2013-05-10 19:30:00,
2013-05-10 12:40:00,65.0,55.7,30.14,ENE,59,1.0,2.0,72,0.00,,,0.00,WeatherTracker,2013-05-10 19:40:00,
2013-05-10 12:50:00,65.6,55.5,30.14,ENE,57,0.0,2.0,70,0.00,,,0.00,WeatherTracker,2013-05-10 19:50:00,
2013-05-10 13:00:00,66.0,55.5,30.13,North,360,0.0,2.0,69,0.00,,,0.00,WeatherTracker,2013-05-10 20:00:00,
2013-05-10 13:10:00,66.3,55.0,30.13,NE,46,1.0,3.0,67,0.00,,,0.00,WeatherTracker,2013-05-10 20:10:00,
2013-05-10 13:20:00,66.5,55.2,30.13,ENE,60,2.0,2.0,67,0.00,,,0.00,WeatherTracker,2013-05-10 20:20:00,
2013-05-10 13:30:00,66.9,55.6,30.13,ENE,61,0.0,3.0,67,0.00,,,0.00,WeatherTracker,2013-05-10 20:30:00,
2013-05-10 13:40:00,67.0,55.7,30.13,NE,41,0.0,3.0,67,0.00,,,0.00,WeatherTracker,2013-05-10 20:40:00,
2013-05-10 13:50:00,67.0,56.1,30.13,ENE,61,0.0,4.0,68,0.00,,,0.00,WeatherTracker,2013-05-10 20:50:00,
2013-05-10 14:00:00,67.2,55.9,30.13,ENE,68,1.0,3.0,67,0.00,,,0.00,WeatherTracker,2013-05-10 21:00:00,
2013-05-10 14:10:00,67.0,55.7,30.13,NE,51,0.0,3.0,67,0.00,,,0.00,WeatherTracker,2013-05-10 21:10:00,
2013-05-10 14:20:00,67.2,55.4,30.13,NE,51,1.0,2.0,66,0.00,,,0.00,WeatherTracker,2013-05-10 21:20:00,
2013-05-10 14:30:00,67.4,56.1,30.12,NE,43,0.0,3.0,67,0.00,,,0.00,WeatherTracker,2013-05-10 21:30:00,
2013-05-10 14:40:00,66.9,55.6,30.12,NE,44,1.0,4.0,67,0.00,,,0.00,WeatherTracker,2013-05-10 21:40:00,
2013-05-10 14:50:00,66.9,55.6,30.12,NE,56,1.0,4.0,67,0.00,,,0.00,WeatherTracker,2013-05-10 21:50:00,
2013-05-10 15:00:00,67.6,55.8,30.12,NE,56,0.0,3.0,66,0.00,,,0.00,WeatherTracker,2013-05-10 22:00:00,
2013-05-10 15:10:00,68.3,56.1,30.11,ENE,57,0.0,2.0,65,0.00,,,0.00,WeatherTracker,2013-05-10 22:10:00,
2013-05-10 15:20:00,68.9,56.6,30.11,NNE,26,0.0,2.0,65,0.00,,,0.00,WeatherTracker,2013-05-10 22:20:00,
2013-05-10 15:30:00,68.6,55.9,30.11,NE,53,0.0,3.0,64,0.00,,,0.00,WeatherTracker,2013-05-10 22:30:00,
2013-05-10 15:40:00,68.2,56.0,30.11,NE,42,1.0,3.0,65,0.00,,,0.00,WeatherTracker,2013-05-10 22:40:00,
2013-05-10 15:50:00,67.9,56.1,30.11,ENE,59,0.0,5.0,66,0.00,,,0.00,WeatherTracker,2013-05-10 22:50:00,
2013-05-10 23:48:00,55.5,51.7,30.13,ENE,61,0.0,5.0,87,0.00,,,0.00,WeatherTracker,2013-05-11 06:48:00,
2013-05-10 23:50:00,55.5,51.7,30.12,ENE,60,0.0,0.0,87,0.00,,,0.00,WeatherTracker,2013-05-11 06:50:00,